createdAt,value
2017-11-11T00:00:47.201Z,8.98
2017-11-11T00:03:15.072Z,15.23
2017-11-11T00:05:42.677Z,12.77
2017-11-11T00:08:10.197Z,10.73
2017-11-11T00:10:37.748Z,10.88
2017-11-11T00:13:05.308Z,11.23
2017-11-11T00:15:32.819Z,19.50
2017-11-11T00:18:00.509Z,12.35
2017-11-11T00:20:28.088Z,19.70
2017-11-11T00:22:55.655Z,17.02
2017-11-11T00:25:23.388Z,18.70
2017-11-11T00:27:51.824Z,18.87
2017-11-11T00:30:19.339Z,15.57
2017-11-11T00:32:47.112Z,23.67
2017-11-11T00:35:14.637Z,16.87
2017-11-11T00:37:42.169Z,15.70
2017-11-11T00:40:09.714Z,20.50
2017-11-11T00:42:37.245Z,20.98
2017-11-11T00:45:04.806Z,14.10
2017-11-11T00:47:32.604Z,11.15
2017-11-11T00:50:00.133Z,17.52
2017-11-11T00:52:27.688Z,14.80
2017-11-11T00:54:55.292Z,9.05
2017-11-11T00:57:22.806Z,11.80
2017-11-11T00:59:50.345Z,15.70
2017-11-11T01:02:18.129Z,14.43
2017-11-11T01:04:45.706Z,18.35
2017-11-11T01:07:13.247Z,12.60
2017-11-11T01:09:40.990Z,14.05
2017-11-11T01:12:08.504Z,11.65
2017-11-11T01:14:36.020Z,10.02
2017-11-11T01:17:03.769Z,12.25
2017-11-11T01:19:31.275Z,11.02
2017-11-11T01:21:58.830Z,13.13
2017-11-11T01:24:26.546Z,16.90
2017-11-11T01:26:54.077Z,28.12
2017-11-11T01:29:21.630Z,18.60
2017-11-11T01:31:49.257Z,14.00
2017-11-11T01:34:16.772Z,21.85
2017-11-11T01:36:44.289Z,12.85
2017-11-11T01:39:11.998Z,9.45
2017-11-11T01:41:39.518Z,18.17
2017-11-11T01:44:07.028Z,13.85
2017-11-11T01:46:34.631Z,13.60
2017-11-11T01:49:02.184Z,15.68
2017-11-11T01:51:29.721Z,22.73
2017-11-11T01:53:57.479Z,19.77
2017-11-11T01:56:24.991Z,19.00
2017-11-11T01:58:52.508Z,24.65
2017-11-11T02:01:20.263Z,16.77
2017-11-11T02:03:47.771Z,18.98
2017-11-11T02:06:15.295Z,21.02
2017-11-11T02:08:43.271Z,18.70
2017-11-11T02:11:10.806Z,12.85
2017-11-11T02:13:38.674Z,16.80
2017-11-11T02:16:06.234Z,18.17
2017-11-11T02:18:33.794Z,15.13
2017-11-11T02:21:01.354Z,18.75
2017-11-11T02:23:28.984Z,24.33
2017-11-11T02:25:56.496Z,16.52
2017-11-11T02:28:24.009Z,19.27
2017-11-11T02:30:51.564Z,31.05
2017-11-11T02:33:19.158Z,29.52
2017-11-11T02:35:46.705Z,14.20
2017-11-11T02:38:14.542Z,19.95
2017-11-11T02:40:42.052Z,19.52
2017-11-11T02:43:09.568Z,20.90
2017-11-11T02:45:37.351Z,19.67
2017-11-11T02:48:04.920Z,18.42
2017-11-11T02:50:33.423Z,18.12
2017-11-11T02:53:01.156Z,17.05
2017-11-11T02:55:28.714Z,23.65
2017-11-11T02:57:56.251Z,28.65
2017-11-11T03:00:23.937Z,26.10
2017-11-11T03:02:51.493Z,19.55
2017-11-11T03:05:19.003Z,14.23
2017-11-11T03:07:46.576Z,14.85
2017-11-11T03:10:14.092Z,19.12
2017-11-11T03:12:41.635Z,14.80
2017-11-11T03:15:09.392Z,17.80
2017-11-11T03:17:36.909Z,15.52
2017-11-11T03:20:04.424Z,20.00
2017-11-11T03:22:32.732Z,18.10
2017-11-11T03:25:00.277Z,19.73
2017-11-11T03:27:27.792Z,16.08
2017-11-11T03:29:55.576Z,16.17
2017-11-11T03:32:23.094Z,22.58
2017-11-11T03:34:50.612Z,15.45
2017-11-11T03:37:18.344Z,11.90
2017-11-11T03:39:45.858Z,10.02
2017-11-11T03:42:13.372Z,10.68
2017-11-11T03:44:41.064Z,10.07
2017-11-11T03:47:08.577Z,8.63
2017-11-11T03:49:36.092Z,20.80
2017-11-11T03:52:03.650Z,11.95
2017-11-11T03:54:31.176Z,8.30
2017-11-11T03:56:58.714Z,20.25
2017-11-11T03:59:26.556Z,18.30
2017-11-11T04:01:54.084Z,16.48
2017-11-11T04:04:21.599Z,18.30
2017-11-11T04:06:49.160Z,15.05
2017-11-11T04:09:16.713Z,11.85
2017-11-11T04:11:44.274Z,19.50
2017-11-11T04:14:11.835Z,20.70
2017-11-11T04:16:39.348Z,17.80
2017-11-11T04:19:06.879Z,23.80
2017-11-11T04:21:34.448Z,12.50
2017-11-11T04:24:01.960Z,9.80
2017-11-11T04:26:29.471Z,21.85
2017-11-11T04:28:57.189Z,19.30
2017-11-11T04:31:24.700Z,25.37
2017-11-11T04:33:52.212Z,13.65
2017-11-11T04:36:19.969Z,8.13
2017-11-11T04:38:47.529Z,19.15
2017-11-11T04:41:15.087Z,11.25
2017-11-11T04:43:43.047Z,14.45
2017-11-11T04:46:10.567Z,11.80
2017-11-11T04:48:38.077Z,9.27
2017-11-11T04:51:05.628Z,10.50
2017-11-11T04:53:33.141Z,12.05
2017-11-11T04:56:00.685Z,15.82
2017-11-11T04:58:28.310Z,10.27
2017-11-11T05:00:55.815Z,18.40
2017-11-11T05:03:23.332Z,6.78
2017-11-11T05:05:50.892Z,11.80
2017-11-11T05:08:18.442Z,9.98
2017-11-11T05:10:45.951Z,15.43
2017-11-11T05:13:14.586Z,18.23
2017-11-11T05:15:42.095Z,9.55
2017-11-11T05:18:09.603Z,9.35
2017-11-11T05:20:37.344Z,17.40
2017-11-11T05:23:04.856Z,18.12
2017-11-11T05:25:33.144Z,9.20
2017-11-11T05:28:00.711Z,10.18
2017-11-11T05:30:28.223Z,11.40
2017-11-11T05:32:55.775Z,14.13
2017-11-11T05:35:23.314Z,12.23
2017-11-11T05:37:50.828Z,15.40
2017-11-11T05:40:18.335Z,8.43
2017-11-11T05:42:46.083Z,9.00
2017-11-11T05:45:13.602Z,19.30
2017-11-11T05:47:41.129Z,8.40
2017-11-11T05:50:08.685Z,10.40
2017-11-11T05:52:36.203Z,13.62
2017-11-11T05:55:03.724Z,11.35
2017-11-11T05:57:31.751Z,7.15
2017-11-11T05:59:59.263Z,12.85
2017-11-11T06:02:26.781Z,10.75
2017-11-11T06:04:54.656Z,14.95
2017-11-11T06:07:22.160Z,10.25
2017-11-11T06:09:49.671Z,14.10
2017-11-11T06:12:17.653Z,7.87
2017-11-11T06:14:45.188Z,7.10
2017-11-11T06:17:13.680Z,9.05
2017-11-11T06:19:41.444Z,12.50
2017-11-11T06:22:09.004Z,14.48
2017-11-11T06:24:36.511Z,9.40
2017-11-11T06:27:04.135Z,11.12
2017-11-11T06:29:31.814Z,9.98
2017-11-11T06:31:59.328Z,21.55
2017-11-11T06:34:26.901Z,18.35
2017-11-11T06:36:54.481Z,11.80
2017-11-11T06:39:22.019Z,10.20
2017-11-11T06:41:49.816Z,15.48
2017-11-11T06:44:17.547Z,13.55
2017-11-11T06:46:45.105Z,17.27
2017-11-11T06:49:12.843Z,7.82
2017-11-11T06:51:40.355Z,13.18
2017-11-11T06:54:07.886Z,11.60
2017-11-11T06:56:35.441Z,15.95
2017-11-11T06:59:02.949Z,17.37
2017-11-11T07:01:30.460Z,6.70
2017-11-11T07:03:58.207Z,13.90
2017-11-11T07:06:25.719Z,7.70
2017-11-11T07:08:53.233Z,10.52
2017-11-11T07:11:21.106Z,8.05
2017-11-11T07:13:48.666Z,9.82
2017-11-11T07:16:16.176Z,7.72
2017-11-11T07:18:43.755Z,12.55
2017-11-11T07:21:11.346Z,10.43
2017-11-11T07:23:38.859Z,13.45
2017-11-11T07:26:06.564Z,12.50
2017-11-11T07:28:34.076Z,10.05
2017-11-11T07:31:01.608Z,10.27
2017-11-11T07:33:30.264Z,7.90
2017-11-11T07:35:57.783Z,19.67
2017-11-11T07:38:25.299Z,12.25
2017-11-11T07:40:53.020Z,21.30
2017-11-11T07:43:20.538Z,11.75
2017-11-11T07:45:48.060Z,14.75
2017-11-11T07:48:15.929Z,5.40
2017-11-11T07:50:43.443Z,10.95
2017-11-11T07:53:11.456Z,11.38
2017-11-11T07:55:39.321Z,17.10
2017-11-11T07:58:06.876Z,12.00
2017-11-11T08:00:34.382Z,8.15
2017-11-11T08:03:01.949Z,10.20
2017-11-11T08:05:29.476Z,15.32
2017-11-11T08:07:57.012Z,12.20
2017-11-11T08:10:24.778Z,8.75
2017-11-11T08:12:52.299Z,12.93
2017-11-11T08:15:19.818Z,7.90
2017-11-11T08:17:47.368Z,8.60
2017-11-11T08:20:14.912Z,9.60
2017-11-11T08:22:42.471Z,11.73
2017-11-11T08:25:10.052Z,11.27
2017-11-11T08:27:37.582Z,9.82
2017-11-11T08:30:05.112Z,11.52
2017-11-11T08:32:32.980Z,12.63
2017-11-11T08:35:00.492Z,7.47
2017-11-11T08:37:28.047Z,9.98
2017-11-11T08:39:55.793Z,11.95
2017-11-11T08:42:23.368Z,10.02
2017-11-11T08:44:50.879Z,11.57
2017-11-11T08:47:18.423Z,16.83
2017-11-11T08:49:45.998Z,7.25
2017-11-11T08:52:13.516Z,18.15
2017-11-11T08:54:41.179Z,11.38
2017-11-11T08:57:08.708Z,10.25
2017-11-11T08:59:36.268Z,9.70
2017-11-11T09:02:04.518Z,10.35
2017-11-11T09:04:32.032Z,16.23
2017-11-11T09:06:59.550Z,9.10
2017-11-11T09:09:27.323Z,6.55
2017-11-11T09:11:54.835Z,12.30
2017-11-11T09:14:22.363Z,8.30
2017-11-11T09:16:50.084Z,11.25
2017-11-11T09:19:17.604Z,9.70
2017-11-11T09:21:45.544Z,16.25
2017-11-11T09:24:13.110Z,8.60
2017-11-11T09:26:41.574Z,6.90
2017-11-11T09:29:09.091Z,12.82
2017-11-11T09:31:36.803Z,14.35
2017-11-11T09:34:04.332Z,14.77
2017-11-11T09:36:31.849Z,11.65
2017-11-11T09:38:59.568Z,13.32
2017-11-11T09:41:27.149Z,18.90
2017-11-11T09:43:54.685Z,6.62
2017-11-11T09:46:22.477Z,9.20
2017-11-11T09:48:49.997Z,12.82
2017-11-11T09:51:17.513Z,5.32
2017-11-11T09:53:45.313Z,10.90
2017-11-11T09:56:12.835Z,12.50
2017-11-11T09:58:40.400Z,8.90
2017-11-11T10:01:08.117Z,7.82
2017-11-11T10:03:35.669Z,9.63
2017-11-11T10:06:03.186Z,10.63
2017-11-11T10:08:31.095Z,11.12
2017-11-11T10:10:58.757Z,12.05
2017-11-11T10:13:26.308Z,11.02
2017-11-11T10:15:54.192Z,8.02
2017-11-11T10:18:21.838Z,14.20
2017-11-11T10:20:49.363Z,4.55
2017-11-11T10:23:17.137Z,9.88
2017-11-11T10:25:45.853Z,24.95
2017-11-11T10:28:13.503Z,5.18
2017-11-11T10:30:41.176Z,9.40
2017-11-11T10:33:08.734Z,11.48
2017-11-11T10:35:36.265Z,5.45
2017-11-11T10:38:04.368Z,9.48
2017-11-11T10:40:31.874Z,5.75
2017-11-11T10:42:59.384Z,3.05
2017-11-11T10:45:27.131Z,5.10
2017-11-11T10:47:55.625Z,12.05
2017-11-11T10:50:23.340Z,5.80
2017-11-11T10:52:51.136Z,3.25
2017-11-11T10:55:18.656Z,11.88
2017-11-11T10:57:46.272Z,8.73
2017-11-11T11:00:13.879Z,7.47
2017-11-11T11:02:41.410Z,4.07
2017-11-11T11:05:08.950Z,9.65
2017-11-11T11:07:37.430Z,5.45
2017-11-11T11:10:05.295Z,2.87
2017-11-11T11:12:32.817Z,3.70
2017-11-11T11:15:00.722Z,4.50
2017-11-11T11:17:28.246Z,3.90
2017-11-11T11:19:55.845Z,3.37
2017-11-11T11:22:23.406Z,3.25
2017-11-11T11:24:50.968Z,5.82
2017-11-11T11:27:18.488Z,3.35
2017-11-11T11:29:46.075Z,8.20
2017-11-11T11:32:13.747Z,4.93
2017-11-11T11:34:41.296Z,1.75
2017-11-11T11:37:09.162Z,6.12
2017-11-11T11:39:36.712Z,3.85
2017-11-11T11:42:04.289Z,5.00
2017-11-11T11:44:32.228Z,1.60
2017-11-11T11:46:59.779Z,3.10
2017-11-11T11:49:28.289Z,3.17
2017-11-11T11:51:56.051Z,5.57
2017-11-11T11:54:23.567Z,2.75
2017-11-11T11:56:51.282Z,4.75
2017-11-11T11:59:19.091Z,3.28
2017-11-11T12:01:46.800Z,1.40
2017-11-11T12:04:14.362Z,4.07
2017-11-11T12:06:42.114Z,1.70
2017-11-11T12:09:09.619Z,5.40
2017-11-11T12:11:37.124Z,2.30
2017-11-11T12:14:04.908Z,1.92
2017-11-11T12:16:32.469Z,1.75
2017-11-11T12:19:00.033Z,1.90
2017-11-11T12:21:27.676Z,3.08
2017-11-11T12:23:55.213Z,11.52
2017-11-11T12:26:22.722Z,3.30
2017-11-11T12:28:50.463Z,1.25
2017-11-11T12:31:18.025Z,1.62
2017-11-11T12:33:45.595Z,1.42
2017-11-11T12:36:13.756Z,1.75
2017-11-11T12:38:41.307Z,5.00
2017-11-11T12:41:08.816Z,2.00
2017-11-11T12:43:36.434Z,1.20
2017-11-11T12:46:04.007Z,1.27
2017-11-11T12:48:31.554Z,3.17
2017-11-11T12:50:59.288Z,2.35
2017-11-11T12:53:26.874Z,1.50
2017-11-11T12:55:54.413Z,1.58
2017-11-11T12:58:22.236Z,3.95
2017-11-11T13:00:50.061Z,1.75
2017-11-11T13:03:17.641Z,1.10
2017-11-11T13:05:45.488Z,4.30
2017-11-11T13:08:13.013Z,1.62
2017-11-11T13:10:40.548Z,0.98
2017-11-11T13:13:08.331Z,1.42
2017-11-11T13:15:35.843Z,2.58
2017-11-11T13:18:03.385Z,1.48
2017-11-11T13:20:30.944Z,1.10
2017-11-11T13:22:58.503Z,2.80
2017-11-11T13:25:26.032Z,1.25
2017-11-11T13:27:53.803Z,1.40
2017-11-11T13:30:21.694Z,2.90
2017-11-11T13:32:49.209Z,1.98
2017-11-11T13:35:16.860Z,1.90
2017-11-11T13:37:45.045Z,3.10
2017-11-11T13:40:12.565Z,2.28
2017-11-11T13:42:40.283Z,2.60
2017-11-11T13:45:07.805Z,1.52
2017-11-11T13:47:35.462Z,1.27
2017-11-11T13:50:03.272Z,1.80
2017-11-11T13:52:30.785Z,1.60
2017-11-11T13:54:58.349Z,1.33
2017-11-11T13:57:26.247Z,2.53
2017-11-11T13:59:53.758Z,2.47
2017-11-11T14:02:21.600Z,1.50
2017-11-11T14:04:49.711Z,1.50
2017-11-11T14:07:17.332Z,1.35
2017-11-11T14:09:45.056Z,2.37
2017-11-11T14:12:13.166Z,1.70
2017-11-11T14:14:40.802Z,1.27
2017-11-11T14:17:08.392Z,1.50
2017-11-11T14:19:35.996Z,3.90
2017-11-11T14:22:03.523Z,2.00
2017-11-11T14:24:31.065Z,2.42
2017-11-11T14:26:58.745Z,1.30
2017-11-11T14:29:26.387Z,1.83
2017-11-11T14:31:53.946Z,1.67
2017-11-11T14:34:21.817Z,2.03
2017-11-11T14:36:49.365Z,3.15
2017-11-11T14:39:17.135Z,1.30
2017-11-11T14:41:44.900Z,5.57
2017-11-11T14:44:12.587Z,2.47
2017-11-11T14:46:40.291Z,1.27
2017-11-11T14:49:08.068Z,2.08
2017-11-11T14:51:35.852Z,1.73
2017-11-11T14:54:03.617Z,1.50
2017-11-11T14:56:31.278Z,1.77
2017-11-11T14:58:58.796Z,1.00
2017-11-11T15:01:26.502Z,1.20
2017-11-11T15:03:54.568Z,2.30
2017-11-11T15:06:22.253Z,4.05
2017-11-11T15:08:50.007Z,1.23
2017-11-11T15:11:18.183Z,1.40
2017-11-11T15:13:46.037Z,2.05
2017-11-11T15:16:13.697Z,1.80
2017-11-11T15:18:41.563Z,1.10
2017-11-11T15:21:09.238Z,1.67
2017-11-11T15:23:36.855Z,1.23
2017-11-11T15:26:04.853Z,1.33
2017-11-11T15:28:32.447Z,2.90
2017-11-11T15:31:00.181Z,1.35
2017-11-11T15:33:27.942Z,1.70
2017-11-11T15:35:55.606Z,1.10
2017-11-11T15:38:23.563Z,1.75
2017-11-11T15:40:51.234Z,2.85
2017-11-11T15:43:19.030Z,3.25
2017-11-11T15:45:46.660Z,1.00
2017-11-11T15:48:14.416Z,2.85
2017-11-11T15:50:42.185Z,1.98
2017-11-11T15:53:09.954Z,1.20
2017-11-11T15:55:37.735Z,1.33
2017-11-11T15:58:05.270Z,1.70
2017-11-11T16:00:33.045Z,1.50
2017-11-11T16:03:00.767Z,1.10
2017-11-11T16:05:28.303Z,1.85
2017-11-11T16:07:55.824Z,1.00
2017-11-11T16:10:23.712Z,1.10
2017-11-11T16:12:51.252Z,1.00
2017-11-11T16:15:18.802Z,1.50
2017-11-11T16:17:46.534Z,1.10
2017-11-11T16:20:14.058Z,3.03
2017-11-11T16:22:41.582Z,0.80
2017-11-11T16:25:09.650Z,1.27
2017-11-11T16:27:37.211Z,1.98
2017-11-11T16:30:04.770Z,1.00
2017-11-11T16:32:32.471Z,8.15
2017-11-11T16:35:00.044Z,1.00
2017-11-11T16:37:27.754Z,1.40
2017-11-11T16:39:55.500Z,2.45
2017-11-11T16:42:23.012Z,3.00
2017-11-11T16:44:50.524Z,1.87
2017-11-11T16:47:18.230Z,1.92
2017-11-11T16:49:45.861Z,2.35
2017-11-11T16:52:13.415Z,1.65
2017-11-11T16:54:41.217Z,1.80
2017-11-11T16:57:08.752Z,1.12
2017-11-11T16:59:36.292Z,2.62
2017-11-11T17:02:03.856Z,3.05
2017-11-11T17:04:31.519Z,1.27
2017-11-11T17:06:59.077Z,3.17
2017-11-11T17:09:26.633Z,1.83
2017-11-11T17:11:54.195Z,6.18
2017-11-11T17:14:21.753Z,1.20
2017-11-11T17:16:49.928Z,1.10
2017-11-11T17:19:17.488Z,1.48
2017-11-11T17:21:45.046Z,2.00
2017-11-11T17:24:13.006Z,2.45
2017-11-11T17:26:40.575Z,1.58
2017-11-11T17:29:08.133Z,1.37
2017-11-11T17:31:35.975Z,1.70
2017-11-11T17:34:03.489Z,1.40
2017-11-11T17:36:31.020Z,1.60
2017-11-11T17:38:58.603Z,1.52
2017-11-11T17:41:26.115Z,0.90
2017-11-11T17:43:53.639Z,1.45
2017-11-11T17:46:21.483Z,1.40
2017-11-11T17:48:49.036Z,2.37
2017-11-11T17:51:16.555Z,1.42
2017-11-11T17:53:44.237Z,1.10
2017-11-11T17:56:11.793Z,1.40
2017-11-11T17:58:39.312Z,2.65
2017-11-11T18:01:07.321Z,2.22
2017-11-11T18:03:34.891Z,2.42
2017-11-11T18:06:02.444Z,1.62
2017-11-11T18:08:30.216Z,2.08
2017-11-11T18:10:57.866Z,1.00
2017-11-11T18:13:25.526Z,0.98
2017-11-11T18:15:53.495Z,1.10
2017-11-11T18:18:21.272Z,1.48
2017-11-11T18:20:49.040Z,1.65
2017-11-11T18:23:17.010Z,1.00
2017-11-11T18:25:44.664Z,1.33
2017-11-11T18:28:12.318Z,0.95
2017-11-11T18:30:40.182Z,3.17
2017-11-11T18:33:07.747Z,0.90
2017-11-11T18:35:35.363Z,1.10
2017-11-11T18:38:03.781Z,1.25
2017-11-11T18:40:32.261Z,1.17
2017-11-11T18:42:59.800Z,1.37
2017-11-11T18:45:28.130Z,1.70
2017-11-11T18:47:55.758Z,1.85
2017-11-11T18:50:23.316Z,1.20
2017-11-11T18:52:51.289Z,1.37
2017-11-11T18:55:18.810Z,2.75
2017-11-11T18:57:46.427Z,1.40
2017-11-11T19:00:14.563Z,1.35
2017-11-11T19:02:42.450Z,1.00
2017-11-11T19:05:10.312Z,1.10
2017-11-11T19:07:38.058Z,1.20
2017-11-11T19:10:05.738Z,1.20
2017-11-11T19:12:33.398Z,1.00
2017-11-11T19:15:01.057Z,1.48
2017-11-11T19:17:28.617Z,2.28
2017-11-11T19:19:56.160Z,1.85
2017-11-11T19:22:24.146Z,2.10
2017-11-11T19:24:52.316Z,1.87
2017-11-11T19:27:19.980Z,2.12
2017-11-11T19:29:47.901Z,7.12
2017-11-11T19:32:15.712Z,3.00
2017-11-11T19:34:43.273Z,3.28
2017-11-11T19:37:11.368Z,1.65
2017-11-11T19:39:39.215Z,1.55
2017-11-11T19:42:06.767Z,1.85
2017-11-11T19:44:34.845Z,3.50
2017-11-11T19:47:03.217Z,1.42
2017-11-11T19:49:30.983Z,1.70
2017-11-11T19:51:58.754Z,1.80
2017-11-11T19:54:26.306Z,2.35
2017-11-11T19:56:54.477Z,1.75
2017-11-11T19:59:22.651Z,1.00
2017-11-11T20:01:50.221Z,5.10
2017-11-11T20:04:17.975Z,1.10
2017-11-11T20:06:45.737Z,1.25
2017-11-11T20:09:13.399Z,1.37
2017-11-11T20:11:40.998Z,1.48
2017-11-11T20:14:08.585Z,4.30
2017-11-11T20:16:36.291Z,2.08
2017-11-11T20:19:03.844Z,7.95
2017-11-11T20:21:31.617Z,1.48
2017-11-11T20:23:59.374Z,1.35
2017-11-11T20:26:26.975Z,1.25
2017-11-11T20:28:55.772Z,1.30
2017-11-11T20:31:23.480Z,2.15
2017-11-11T20:33:51.242Z,2.45
2017-11-11T20:36:19.518Z,2.42
2017-11-11T20:38:47.342Z,1.80
2017-11-11T20:41:15.267Z,3.70
2017-11-11T20:43:43.221Z,2.80
2017-11-11T20:46:10.999Z,2.58
2017-11-11T20:48:38.665Z,2.17
2017-11-11T20:51:07.695Z,3.72
2017-11-11T20:53:35.516Z,1.92
2017-11-11T20:56:03.372Z,3.10
2017-11-11T20:58:31.286Z,2.58
2017-11-11T21:00:59.002Z,2.17
2017-11-11T21:03:26.835Z,4.12
2017-11-11T21:05:54.639Z,4.68
2017-11-11T21:08:22.401Z,3.55
2017-11-11T21:10:50.175Z,3.42
2017-11-11T21:13:17.931Z,4.40
2017-11-11T21:15:45.606Z,3.72
2017-11-11T21:18:13.453Z,5.05
2017-11-11T21:20:41.191Z,6.18
2017-11-11T21:23:08.728Z,3.95
2017-11-11T21:25:36.446Z,6.22
2017-11-11T21:28:04.403Z,8.95
2017-11-11T21:30:32.150Z,9.88
2017-11-11T21:32:59.834Z,13.10
2017-11-11T21:35:27.493Z,14.73
2017-11-11T21:37:55.255Z,15.98
2017-11-11T21:40:22.795Z,21.95
2017-11-11T21:42:50.825Z,21.48
2017-11-11T21:45:18.384Z,22.27
2017-11-11T21:47:46.094Z,14.95
2017-11-11T21:50:13.869Z,12.93
2017-11-11T21:52:41.431Z,7.68
2017-11-11T21:55:09.039Z,6.50
2017-11-11T21:57:36.859Z,4.20
2017-11-11T22:00:04.516Z,6.15
2017-11-11T22:02:32.077Z,4.50
2017-11-11T22:04:59.652Z,5.18
2017-11-11T22:07:27.211Z,4.32
2017-11-11T22:09:54.782Z,4.50
2017-11-11T22:12:22.357Z,3.58
2017-11-11T22:14:49.975Z,5.40
2017-11-11T22:17:17.534Z,4.10
2017-11-11T22:19:45.400Z,3.33
2017-11-11T22:22:12.963Z,5.10
2017-11-11T22:24:40.622Z,6.32
2017-11-11T22:27:08.383Z,5.00
2017-11-11T22:29:36.054Z,7.22
2017-11-11T22:32:03.708Z,8.10
2017-11-11T22:34:31.573Z,4.45
2017-11-11T22:36:59.135Z,5.62
2017-11-11T22:39:26.912Z,6.78
2017-11-11T22:41:54.597Z,6.07
2017-11-11T22:44:22.322Z,5.07
2017-11-11T22:46:49.870Z,7.78
2017-11-11T22:49:17.441Z,8.80
2017-11-11T22:51:44.999Z,7.40
2017-11-11T22:54:12.559Z,6.22
2017-11-11T22:56:40.321Z,10.77
2017-11-11T22:59:07.851Z,7.40
2017-11-11T23:01:35.367Z,8.38
2017-11-11T23:04:03.188Z,6.55
2017-11-11T23:06:30.702Z,7.30
2017-11-11T23:08:58.237Z,7.20
2017-11-11T23:11:25.984Z,8.70
2017-11-11T23:13:53.544Z,12.40
2017-11-11T23:16:21.102Z,11.12
2017-11-11T23:27:52.907Z,11.15
2017-11-11T23:30:20.424Z,10.68
2017-11-11T23:32:47.948Z,14.05
2017-11-11T23:35:15.735Z,15.15
2017-11-11T23:37:43.248Z,14.15
2017-11-11T23:40:10.777Z,12.52
2017-11-11T23:42:38.564Z,13.60
2017-11-11T23:45:06.090Z,10.45
2017-11-11T23:47:33.633Z,14.85
2017-11-11T23:50:02.513Z,9.98
2017-11-11T23:52:30.771Z,10.90
2017-11-11T23:54:58.279Z,12.80
2017-11-11T23:57:26.920Z,9.65
2017-11-11T23:59:54.436Z,11.65
